Kearney, NE (68847)

7:55 PM CDT on July 23, 2014 (GMT -0500)
Regency (KNEKEARN3) Elev 2224 ft | 40.72 °N, 99.08 °W | Change Station

Current weather conditions updated 6 seconds ago

Clear
Clear
75.7 °F
Feels Like 78 °F
N
2.1
Wind Variable Wind from SE
Gusts 4.6 mph

Tomorrow is forecast to be Much Warmer than today.

Today
High -- | Low -- °F
--% Chance of Precip.
Yesterday
High -- | Low -- °F
Precip. -- in
6:24 AM 9:00 PM
Waning Crescent, 8% visible
Pressure 30.18 in
Visibility 10.0 miles
Clouds Clear
Heat Index 78 °F
Dew Point 64 °F
Humidity 67%
Rainfall 0.00 in
Snow Depth Not available.
UV 1 out of 12
Pollen 6.40 out of 12
Air Quality Not available.
Flu Activity Not available.
METAR KEAR 240035Z AUTO 09007KT 10SM CLR 26/17 A3018 RMK AO1

More Conditions Fewer Conditions

Pressure 30.18 in
Visibility 10.0 miles
Clouds Clear
Heat Index 78 °F
Dew Point 64 °F
Humidity 67%
Rainfall 0.00 in
Snow Depth Not available.
UV 1 out of 12
Pollen 6.40 out of 12
Air Quality Not available.
Flu Activity Not available.
METAR KEAR 240035Z AUTO 09007KT 10SM CLR 26/17 A3018 RMK AO1

More Conditions Fewer Conditions

10-Day Weather Forecast

Almanac

Astronomy

Jul. 23, 2014 Rise Set
Actual Time 6:24 AM CDT 9:00 PM CDT
Civil Twilight 5:53 AM CDT 9:31 PM CDT
Nautical Twilight 5:13 AM CDT 10:11 PM CDT
Astronomical Twilight 4:29 AM CDT 10:55 PM CDT
Moon 3:45 AM CDT (7/23) 6:30 PM CDT (7/23)
Length of Visible Light 15h 38m
Length of Day
14h 35m
Tomorrow will be 1m 45s shorter.
Waning Crescent, 8% of the Moon is Illuminated
Today
Waning Crescent
Jul 26
New
Aug 3
First Quarter
Aug 10
Full
Aug 17
Last Quarter

Today's Extremes

State Highs State Lows

Community

WunderPhotos

Upload Photos

1,736,822 photos uploaded!

Nearby

Snow Depth

Station Depth Elevation
No new snow has been reported.

Earthquake Activity

City Distance Mag. Time & Date
No recent earthquake activity has been reported nearby.
Minimum magnitude displayed is 2.5.

Coastal Water Temperatures

Place Temperature
No Stations Reporting

Nearby Weather Stations

Station Location Temp. Heat Index Dew Point Humidity Wind Precip. Elev Updated Type
Regency, Kearney, NE 75.7 °F 78 °F 64 °F 67% SE  at  2.1 mph 0.00 in / hr 2224 ft 7:55 PM CDT Rapid Fire
SW Kearney, Kearney, NE 79.4 °F 81 °F 63 °F 58% SE  at  4.0 mph 0.00 in / hr 2159 ft 7:55 PM CDT Rapid Fire
Kuehn International Airport, Heartwell, NE 77.9 °F 79 °F 60 °F 54% East  at  6.0 mph 0.00 in / hr 2083 ft 7:55 PM CDT Normal
MesoWest CORY1 , Wood River, NE 83 °F 81 °F - - North  at  - 0.00 in / hr 1990 ft 6:00 PM CDT MADIS

Show More Stations Show Fewer Stations